sensor_id;sensor_type;location;lat;lon;timestamp;temperature;humidity
9668;DHT22;4872;48.316;10.650;2023-03-09T05:08:22;8.80;99.90
9668;DHT22;4872;48.316;10.650;2023-03-09T05:10:49;8.80;99.90
9668;DHT22;4872;48.316;10.650;2023-03-09T05:13:16;8.80;99.90
9668;DHT22;4872;48.316;10.650;2023-03-09T05:15:42;8.80;99.90
9668;DHT22;4872;48.316;10.650;2023-03-09T05:18:09;8.90;99.90
9668;DHT22;4872;48.316;10.650;2023-03-09T05:20:38;9.00;99.90
9668;DHT22;4872;48.316;10.650;2023-03-09T05:23:19;8.80;99.90
9668;DHT22;4872;48.316;10.650;2023-03-09T05:26:03;8.90;99.90
9668;DHT22;4872;48.316;10.650;2023-03-09T05:28:33;8.50;99.90
9668;DHT22;4872;48.316;10.650;2023-03-09T05:38:30;8.50;99.90
9668;DHT22;4872;48.316;10.650;2023-03-09T05:44:56;8.50;99.90
9668;DHT22;4872;48.316;10.650;2023-03-09T05:47:23;8.50;99.90
9668;DHT22;4872;48.316;10.650;2023-03-09T05:49:50;8.50;99.90
9668;DHT22;4872;48.316;10.650;2023-03-09T05:55:55;8.70;99.90
9668;DHT22;4872;48.316;10.650;2023-03-09T05:58:47;8.50;99.90
9668;DHT22;4872;48.316;10.650;2023-03-09T06:01:19;8.60;99.90
9668;DHT22;4872;48.316;10.650;2023-03-09T06:03:47;8.40;99.90
9668;DHT22;4872;48.316;10.650;2023-03-09T06:06:15;8.40;99.90
9668;DHT22;4872;48.316;10.650;2023-03-09T06:08:42;8.30;99.90
9668;DHT22;4872;48.316;10.650;2023-03-09T06:11:18;8.30;99.90
9668;DHT22;4872;48.316;10.650;2023-03-09T06:13:45;8.40;99.90
9668;DHT22;4872;48.316;10.650;2023-03-09T06:16:14;8.40;99.90
9668;DHT22;4872;48.316;10.650;2023-03-09T06:18:43;8.30;99.90
9668;DHT22;4872;48.316;10.650;2023-03-09T06:21:11;8.50;99.90
9668;DHT22;4872;48.316;10.650;2023-03-09T06:23:38;8.40;99.90
9668;DHT22;4872;48.316;10.650;2023-03-09T06:26:06;8.40;99.90
9668;DHT22;4872;48.316;10.650;2023-03-09T06:28:33;8.50;99.90
9668;DHT22;4872;48.316;10.650;2023-03-09T06:31:05;8.50;99.90
9668;DHT22;4872;48.316;10.650;2023-03-09T06:33:32;8.30;99.90
9668;DHT22;4872;48.316;10.650;2023-03-09T06:36:00;8.40;99.90
9668;DHT22;4872;48.316;10.650;2023-03-09T06:38:28;8.40;99.90
9668;DHT22;4872;48.316;10.650;2023-03-09T06:40:55;8.50;99.90
9668;DHT22;4872;48.316;10.650;2023-03-09T06:43:22;8.50;99.90
9668;DHT22;4872;48.316;10.650;2023-03-09T06:45:49;8.50;99.90
9668;DHT22;4872;48.316;10.650;2023-03-09T06:48:16;8.50;99.90
9668;DHT22;4872;48.316;10.650;2023-03-09T06:50:43;8.70;99.90
9668;DHT22;4872;48.316;10.650;2023-03-09T06:53:12;8.50;99.90
9668;DHT22;4872;48.316;10.650;2023-03-09T06:55:38;8.50;99.90
9668;DHT22;4872;48.316;10.650;2023-03-09T06:58:05;8.50;99.90
9668;DHT22;4872;48.316;10.650;2023-03-09T07:00:33;8.50;99.90
9668;DHT22;4872;48.316;10.650;2023-03-09T07:03:03;8.70;99.90
9668;DHT22;4872;48.316;10.650;2023-03-09T07:05:30;8.50;99.90
9668;DHT22;4872;48.316;10.650;2023-03-09T07:07:57;8.50;99.90
9668;DHT22;4872;48.316;10.650;2023-03-09T07:10:25;8.50;99.90
9668;DHT22;4872;48.316;10.650;2023-03-09T07:12:52;8.60;99.90
9668;DHT22;4872;48.316;10.650;2023-03-09T07:15:19;8.80;99.90
9668;DHT22;4872;48.316;10.650;2023-03-09T07:17:45;9.10;99.90
9668;DHT22;4872;48.316;10.650;2023-03-09T07:20:12;9.30;99.90
9668;DHT22;4872;48.316;10.650;2023-03-09T07:22:39;9.40;99.90
9668;DHT22;4872;48.316;10.650;2023-03-09T07:25:07;9.60;99.90
9668;DHT22;4872;48.316;10.650;2023-03-09T07:27:35;9.70;99.90
9668;DHT22;4872;48.316;10.650;2023-03-09T07:30:03;9.60;99.90
9668;DHT22;4872;48.316;10.650;2023-03-09T07:32:30;9.50;99.90
9668;DHT22;4872;48.316;10.650;2023-03-09T07:34:56;9.40;99.90
9668;DHT22;4872;48.316;10.650;2023-03-09T07:37:23;9.50;99.90
9668;DHT22;4872;48.316;10.650;2023-03-09T07:39:50;9.40;99.90
9668;DHT22;4872;48.316;10.650;2023-03-09T07:42:17;9.40;99.90
9668;DHT22;4872;48.316;10.650;2023-03-09T07:44:45;9.40;99.90
9668;DHT22;4872;48.316;10.650;2023-03-09T07:47:12;9.60;99.90
9668;DHT22;4872;48.316;10.650;2023-03-09T07:49:38;9.30;99.90
9668;DHT22;4872;48.316;10.650;2023-03-09T07:52:23;9.30;99.90
9668;DHT22;4872;48.316;10.650;2023-03-09T07:54:56;9.40;99.90
9668;DHT22;4872;48.316;10.650;2023-03-09T07:57:22;10.00;99.90
9668;DHT22;4872;48.316;10.650;2023-03-09T07:59:53;9.80;99.90
9668;DHT22;4872;48.316;10.650;2023-03-09T08:02:20;9.70;99.90
9668;DHT22;4872;48.316;10.650;2023-03-09T08:04:47;10.00;99.90
9668;DHT22;4872;48.316;10.650;2023-03-09T08:07:15;9.90;99.90
9668;DHT22;4872;48.316;10.650;2023-03-09T08:09:42;9.90;99.90
9668;DHT22;4872;48.316;10.650;2023-03-09T08:12:09;9.80;99.90
9668;DHT22;4872;48.316;10.650;2023-03-09T08:14:36;9.90;99.90
9668;DHT22;4872;48.316;10.650;2023-03-09T08:17:04;9.80;99.90
9668;DHT22;4872;48.316;10.650;2023-03-09T08:19:31;9.80;99.90
9668;DHT22;4872;48.316;10.650;2023-03-09T08:21:58;9.80;99.90
9668;DHT22;4872;48.316;10.650;2023-03-09T08:24:25;9.70;99.90
9668;DHT22;4872;48.316;10.650;2023-03-09T08:26:52;9.70;99.90
9668;DHT22;4872;48.316;10.650;2023-03-09T08:29:19;9.80;99.90
9668;DHT22;4872;48.316;10.650;2023-03-09T08:31:46;9.70;99.90
9668;DHT22;4872;48.316;10.650;2023-03-09T08:34:14;9.80;99.90
9668;DHT22;4872;48.316;10.650;2023-03-09T08:36:41;9.80;99.90
9668;DHT22;4872;48.316;10.650;2023-03-09T08:39:07;9.80;99.90
9668;DHT22;4872;48.316;10.650;2023-03-09T08:41:34;9.90;99.90
9668;DHT22;4872;48.316;10.650;2023-03-09T08:44:01;9.90;99.90
9668;DHT22;4872;48.316;10.650;2023-03-09T09:46:35;11.10;97.40
9668;DHT22;4872;48.316;10.650;2023-03-09T09:49:04;11.30;97.70
9668;DHT22;4872;48.316;10.650;2023-03-09T10:33:53;11.70;95.80
9668;DHT22;4872;48.316;10.650;2023-03-09T10:36:32;11.70;95.40
9668;DHT22;4872;48.316;10.650;2023-03-09T10:39:02;11.70;95.30
9668;DHT22;4872;48.316;10.650;2023-03-09T10:41:31;11.90;95.40
9668;DHT22;4872;48.316;10.650;2023-03-09T10:43:58;11.60;95.70
9668;DHT22;4872;48.316;10.650;2023-03-09T10:46:26;11.50;95.60
9668;DHT22;4872;48.316;10.650;2023-03-09T10:49:10;11.60;95.90
9668;DHT22;4872;48.316;10.650;2023-03-09T10:51:39;11.60;95.30
9668;DHT22;4872;48.316;10.650;2023-03-09T10:54:18;11.40;95.30
9668;DHT22;4872;48.316;10.650;2023-03-09T10:56:47;11.60;95.30
9668;DHT22;4872;48.316;10.650;2023-03-09T10:59:29;12.00;94.40
9668;DHT22;4872;48.316;10.650;2023-03-09T11:01:58;12.20;94.50
9668;DHT22;4872;48.316;10.650;2023-03-09T11:04:33;12.10;94.20
9668;DHT22;4872;48.316;10.650;2023-03-09T11:07:05;12.30;93.50
9668;DHT22;4872;48.316;10.650;2023-03-09T11:09:46;12.70;93.40
9668;DHT22;4872;48.316;10.650;2023-03-09T11:12:16;13.40;93.40
9668;DHT22;4872;48.316;10.650;2023-03-09T11:14:46;13.50;92.50
9668;DHT22;4872;48.316;10.650;2023-03-09T11:17:31;13.30;91.60
9668;DHT22;4872;48.316;10.650;2023-03-09T11:20:23;13.00;91.50
9668;DHT22;4872;48.316;10.650;2023-03-09T11:22:59;12.50;90.90
9668;DHT22;4872;48.316;10.650;2023-03-09T11:26:05;12.60;91.40
9668;DHT22;4872;48.316;10.650;2023-03-09T11:31:55;13.00;91.10
9668;DHT22;4872;48.316;10.650;2023-03-09T11:34:25;13.70;89.90
9668;DHT22;4872;48.316;10.650;2023-03-09T11:36:58;14.30;90.70
9668;DHT22;4872;48.316;10.650;2023-03-09T11:39:30;14.80;87.40
9668;DHT22;4872;48.316;10.650;2023-03-09T11:42:00;14.10;87.70
9668;DHT22;4872;48.316;10.650;2023-03-09T11:44:31;13.80;86.80
9668;DHT22;4872;48.316;10.650;2023-03-09T11:47:03;13.20;86.60
9668;DHT22;4872;48.316;10.650;2023-03-09T11:49:31;13.20;88.00
9668;DHT22;4872;48.316;10.650;2023-03-09T11:52:04;12.80;87.00
9668;DHT22;4872;48.316;10.650;2023-03-09T11:54:37;12.80;87.10
9668;DHT22;4872;48.316;10.650;2023-03-09T11:57:08;13.00;86.60
9668;DHT22;4872;48.316;10.650;2023-03-09T11:59:37;13.00;87.70
9668;DHT22;4872;48.316;10.650;2023-03-09T12:02:14;13.50;87.20
9668;DHT22;4872;48.316;10.650;2023-03-09T12:04:46;13.50;85.30
9668;DHT22;4872;48.316;10.650;2023-03-09T12:07:20;14.20;84.20
9668;DHT22;4872;48.316;10.650;2023-03-09T12:09:53;15.10;82.80
9668;DHT22;4872;48.316;10.650;2023-03-09T12:12:27;16.00;81.30
9668;DHT22;4872;48.316;10.650;2023-03-09T12:15:00;16.60;81.20
9668;DHT22;4872;48.316;10.650;2023-03-09T12:17:31;16.30;78.80
9668;DHT22;4872;48.316;10.650;2023-03-09T12:19:58;16.60;77.00
9668;DHT22;4872;48.316;10.650;2023-03-09T12:22:29;16.50;78.20
9668;DHT22;4872;48.316;10.650;2023-03-09T12:24:59;16.20;76.30
9668;DHT22;4872;48.316;10.650;2023-03-09T12:27:27;15.70;72.90
9668;DHT22;4872;48.316;10.650;2023-03-09T12:30:07;15.80;73.20
9668;DHT22;4872;48.316;10.650;2023-03-09T12:32:41;15.60;71.90
9668;DHT22;4872;48.316;10.650;2023-03-09T12:38:32;14.60;73.60
9668;DHT22;4872;48.316;10.650;2023-03-09T12:41:24;14.80;74.70
9668;DHT22;4872;48.316;10.650;2023-03-09T12:43:52;14.70;73.10
9668;DHT22;4872;48.316;10.650;2023-03-09T12:46:59;14.70;72.10
9668;DHT22;4872;48.316;10.650;2023-03-09T12:49:30;14.70;72.70
9668;DHT22;4872;48.316;10.650;2023-03-09T12:52:18;14.50;71.60
9668;DHT22;4872;48.316;10.650;2023-03-09T12:54:56;14.20;72.60
9668;DHT22;4872;48.316;10.650;2023-03-09T12:57:23;13.80;73.20
9668;DHT22;4872;48.316;10.650;2023-03-09T12:59:52;13.50;73.60
9668;DHT22;4872;48.316;10.650;2023-03-09T13:02:28;13.60;74.00
9668;DHT22;4872;48.316;10.650;2023-03-09T13:05:24;13.90;73.60
9668;DHT22;4872;48.316;10.650;2023-03-09T13:07:57;14.20;74.40
9668;DHT22;4872;48.316;10.650;2023-03-09T13:10:29;14.20;74.70
9668;DHT22;4872;48.316;10.650;2023-03-09T13:13:40;14.30;74.60
9668;DHT22;4872;48.316;10.650;2023-03-09T13:16:36;14.30;74.60
9668;DHT22;4872;48.316;10.650;2023-03-09T13:22:26;14.50;76.20
9668;DHT22;4872;48.316;10.650;2023-03-09T13:25:33;14.50;74.50
9668;DHT22;4872;48.316;10.650;2023-03-09T13:28:14;14.20;73.80
9668;DHT22;4872;48.316;10.650;2023-03-09T13:30:46;14.00;72.30
9668;DHT22;4872;48.316;10.650;2023-03-09T13:33:22;14.10;73.20
9668;DHT22;4872;48.316;10.650;2023-03-09T13:35:55;14.50;73.90
9668;DHT22;4872;48.316;10.650;2023-03-09T13:38:26;14.60;72.90
9668;DHT22;4872;48.316;10.650;2023-03-09T13:40:55;14.50;73.30
9668;DHT22;4872;48.316;10.650;2023-03-09T13:43:26;14.40;73.10
9668;DHT22;4872;48.316;10.650;2023-03-09T13:46:01;14.20;73.20
9668;DHT22;4872;48.316;10.650;2023-03-09T13:48:30;14.30;72.70
9668;DHT22;4872;48.316;10.650;2023-03-09T13:50:59;14.50;73.10
9668;DHT22;4872;48.316;10.650;2023-03-09T13:53:27;14.20;72.70
9668;DHT22;4872;48.316;10.650;2023-03-09T13:55:57;13.90;73.00
9668;DHT22;4872;48.316;10.650;2023-03-09T13:58:24;14.00;73.90
9668;DHT22;4872;48.316;10.650;2023-03-09T14:00:53;13.90;74.50
9668;DHT22;4872;48.316;10.650;2023-03-09T14:03:23;14.00;74.40
9668;DHT22;4872;48.316;10.650;2023-03-09T14:05:55;14.00;73.50
9668;DHT22;4872;48.316;10.650;2023-03-09T14:08:22;13.90;73.80
9668;DHT22;4872;48.316;10.650;2023-03-09T14:11:13;13.70;73.70
9668;DHT22;4872;48.316;10.650;2023-03-09T14:13:46;13.90;73.90
9668;DHT22;4872;48.316;10.650;2023-03-09T14:16:14;14.40;74.20
9668;DHT22;4872;48.316;10.650;2023-03-09T14:18:47;14.40;73.90
9668;DHT22;4872;48.316;10.650;2023-03-09T14:21:20;14.60;73.40
9668;DHT22;4872;48.316;10.650;2023-03-09T14:23:47;14.30;74.10
9668;DHT22;4872;48.316;10.650;2023-03-09T14:26:23;14.40;75.00
9668;DHT22;4872;48.316;10.650;2023-03-09T14:29:05;14.10;74.10
9668;DHT22;4872;48.316;10.650;2023-03-09T14:31:33;14.10;74.70
9668;DHT22;4872;48.316;10.650;2023-03-09T14:34:05;13.80;74.50
9668;DHT22;4872;48.316;10.650;2023-03-09T14:36:35;14.00;74.20
9668;DHT22;4872;48.316;10.650;2023-03-09T14:39:06;13.90;74.30
9668;DHT22;4872;48.316;10.650;2023-03-09T14:41:44;13.90;74.60
9668;DHT22;4872;48.316;10.650;2023-03-09T14:44:30;13.80;74.20
9668;DHT22;4872;48.316;10.650;2023-03-09T14:46:57;13.80;74.30
9668;DHT22;4872;48.316;10.650;2023-03-09T14:49:25;13.80;75.00
9668;DHT22;4872;48.316;10.650;2023-03-09T14:51:52;14.00;75.30
9668;DHT22;4872;48.316;10.650;2023-03-09T14:54:19;14.10;75.00
9668;DHT22;4872;48.316;10.650;2023-03-09T14:56:46;14.40;74.40
9668;DHT22;4872;48.316;10.650;2023-03-09T14:59:15;14.50;73.90
9668;DHT22;4872;48.316;10.650;2023-03-09T15:01:44;14.60;74.70
9668;DHT22;4872;48.316;10.650;2023-03-09T15:04:14;15.20;72.90
9668;DHT22;4872;48.316;10.650;2023-03-09T15:06:43;15.70;70.70
9668;DHT22;4872;48.316;10.650;2023-03-09T15:09:10;16.80;70.50
9668;DHT22;4872;48.316;10.650;2023-03-09T15:11:38;17.60;68.50
9668;DHT22;4872;48.316;10.650;2023-03-09T15:14:08;17.90;66.90
9668;DHT22;4872;48.316;10.650;2023-03-09T15:16:36;18.40;67.30
9668;DHT22;4872;48.316;10.650;2023-03-09T15:19:03;19.40;65.20
9668;DHT22;4872;48.316;10.650;2023-03-09T15:21:30;18.90;64.30
9668;DHT22;4872;48.316;10.650;2023-03-09T15:23:58;18.90;63.30
9668;DHT22;4872;48.316;10.650;2023-03-09T15:26:25;19.30;63.00
9668;DHT22;4872;48.316;10.650;2023-03-09T15:28:52;18.90;62.10
9668;DHT22;4872;48.316;10.650;2023-03-09T15:31:19;19.60;62.70
9668;DHT22;4872;48.316;10.650;2023-03-09T15:33:46;17.90;61.50
9668;DHT22;4872;48.316;10.650;2023-03-09T15:36:12;18.20;62.20
9668;DHT22;4872;48.316;10.650;2023-03-09T15:38:39;18.90;61.00
9668;DHT22;4872;48.316;10.650;2023-03-09T15:41:08;18.10;61.70
9668;DHT22;4872;48.316;10.650;2023-03-09T15:43:35;17.30;62.80
9668;DHT22;4872;48.316;10.650;2023-03-09T15:46:03;17.60;61.60
9668;DHT22;4872;48.316;10.650;2023-03-09T15:48:30;17.70;62.10
9668;DHT22;4872;48.316;10.650;2023-03-09T15:50:57;17.80;62.40
9668;DHT22;4872;48.316;10.650;2023-03-09T15:53:24;19.00;61.70
9668;DHT22;4872;48.316;10.650;2023-03-09T15:55:58;19.70;60.60
9668;DHT22;4872;48.316;10.650;2023-03-09T15:58:27;19.70;59.30
9668;DHT22;4872;48.316;10.650;2023-03-09T16:00:56;19.70;59.10
9668;DHT22;4872;48.316;10.650;2023-03-09T16:03:23;18.90;59.60
9668;DHT22;4872;48.316;10.650;2023-03-09T16:05:52;18.10;60.40
9668;DHT22;4872;48.316;10.650;2023-03-09T16:08:18;17.90;60.10
9668;DHT22;4872;48.316;10.650;2023-03-09T16:10:45;18.20;60.20
9668;DHT22;4872;48.316;10.650;2023-03-09T16:13:12;17.60;60.20
9668;DHT22;4872;48.316;10.650;2023-03-09T16:15:41;16.80;60.70
9668;DHT22;4872;48.316;10.650;2023-03-09T16:18:08;15.80;62.50
9668;DHT22;4872;48.316;10.650;2023-03-09T16:20:34;15.10;64.10
9668;DHT22;4872;48.316;10.650;2023-03-09T16:23:02;14.60;65.60
9668;DHT22;4872;48.316;10.650;2023-03-09T16:25:29;13.90;66.20
9668;DHT22;4872;48.316;10.650;2023-03-09T16:27:55;13.70;66.90
9668;DHT22;4872;48.316;10.650;2023-03-09T16:30:22;13.60;66.90
9668;DHT22;4872;48.316;10.650;2023-03-09T16:32:52;13.20;67.70
9668;DHT22;4872;48.316;10.650;2023-03-09T16:35:19;13.10;68.00
9668;DHT22;4872;48.316;10.650;2023-03-09T16:37:47;12.90;68.40
9668;DHT22;4872;48.316;10.650;2023-03-09T16:40:15;12.80;68.80
9668;DHT22;4872;48.316;10.650;2023-03-09T16:42:43;12.50;68.50
9668;DHT22;4872;48.316;10.650;2023-03-09T16:45:13;12.30;67.80
9668;DHT22;4872;48.316;10.650;2023-03-09T16:47:40;12.50;68.70
9668;DHT22;4872;48.316;10.650;2023-03-09T16:50:12;12.40;69.00
9668;DHT22;4872;48.316;10.650;2023-03-09T16:52:39;12.20;69.40
9668;DHT22;4872;48.316;10.650;2023-03-09T16:55:09;12.30;70.20
9668;DHT22;4872;48.316;10.650;2023-03-09T16:57:37;12.10;70.10
9668;DHT22;4872;48.316;10.650;2023-03-09T17:00:05;12.10;70.20
9668;DHT22;4872;48.316;10.650;2023-03-09T17:02:34;12.10;69.80
9668;DHT22;4872;48.316;10.650;2023-03-09T17:05:03;12.00;69.90
9668;DHT22;4872;48.316;10.650;2023-03-09T17:07:32;11.90;70.40
9668;DHT22;4872;48.316;10.650;2023-03-09T17:10:00;12.00;70.60
9668;DHT22;4872;48.316;10.650;2023-03-09T17:12:28;11.90;70.90
9668;DHT22;4872;48.316;10.650;2023-03-09T17:14:55;11.80;71.00
9668;DHT22;4872;48.316;10.650;2023-03-09T17:17:22;11.80;71.20
9668;DHT22;4872;48.316;10.650;2023-03-09T17:19:49;11.70;71.20
9668;DHT22;4872;48.316;10.650;2023-03-09T17:22:18;11.60;71.20
9668;DHT22;4872;48.316;10.650;2023-03-09T17:24:47;11.60;71.10
9668;DHT22;4872;48.316;10.650;2023-03-09T17:27:14;11.40;71.00
9668;DHT22;4872;48.316;10.650;2023-03-09T17:29:41;11.40;71.30
9668;DHT22;4872;48.316;10.650;2023-03-09T17:32:08;11.30;71.40
9668;DHT22;4872;48.316;10.650;2023-03-09T17:34:35;11.30;71.60
9668;DHT22;4872;48.316;10.650;2023-03-09T17:37:03;11.20;71.30
9668;DHT22;4872;48.316;10.650;2023-03-09T17:39:30;11.20;71.60
9668;DHT22;4872;48.316;10.650;2023-03-09T17:41:58;11.10;71.70
9668;DHT22;4872;48.316;10.650;2023-03-09T17:44:25;11.20;71.90
9668;DHT22;4872;48.316;10.650;2023-03-09T17:46:51;11.10;72.20
9668;DHT22;4872;48.316;10.650;2023-03-09T17:49:19;10.90;72.30
9668;DHT22;4872;48.316;10.650;2023-03-09T17:51:46;10.80;72.50
9668;DHT22;4872;48.316;10.650;2023-03-09T17:54:13;10.80;72.80
9668;DHT22;4872;48.316;10.650;2023-03-09T17:56:40;10.70;73.10
9668;DHT22;4872;48.316;10.650;2023-03-09T17:59:08;10.70;73.00
9668;DHT22;4872;48.316;10.650;2023-03-09T18:01:36;10.90;73.30
9668;DHT22;4872;48.316;10.650;2023-03-09T18:04:04;10.60;73.10
9668;DHT22;4872;48.316;10.650;2023-03-09T18:06:31;10.70;73.30
9668;DHT22;4872;48.316;10.650;2023-03-09T18:08:59;10.60;73.20
9668;DHT22;4872;48.316;10.650;2023-03-09T18:11:28;10.60;73.20
9668;DHT22;4872;48.316;10.650;2023-03-09T18:13:56;10.60;73.70
9668;DHT22;4872;48.316;10.650;2023-03-09T18:16:25;10.60;73.10
9668;DHT22;4872;48.316;10.650;2023-03-09T18:18:53;10.60;73.20
9668;DHT22;4872;48.316;10.650;2023-03-09T18:21:23;10.60;73.30
9668;DHT22;4872;48.316;10.650;2023-03-09T18:23:51;10.80;73.50
9668;DHT22;4872;48.316;10.650;2023-03-09T18:26:20;10.50;73.20
9668;DHT22;4872;48.316;10.650;2023-03-09T18:28:48;10.50;73.70
9668;DHT22;4872;48.316;10.650;2023-03-09T18:31:15;10.40;74.40
9668;DHT22;4872;48.316;10.650;2023-03-09T18:33:43;10.50;75.20
9668;DHT22;4872;48.316;10.650;2023-03-09T18:36:11;10.40;75.50
9668;DHT22;4872;48.316;10.650;2023-03-09T18:38:39;10.00;75.50
9668;DHT22;4872;48.316;10.650;2023-03-09T18:41:06;9.90;76.70
9668;DHT22;4872;48.316;10.650;2023-03-09T18:43:33;9.80;76.80
9668;DHT22;4872;48.316;10.650;2023-03-09T18:46:00;9.80;77.20
9668;DHT22;4872;48.316;10.650;2023-03-09T18:48:26;10.00;76.60
9668;DHT22;4872;48.316;10.650;2023-03-09T18:50:57;9.80;77.60
9668;DHT22;4872;48.316;10.650;2023-03-09T18:53:26;9.60;77.70
9668;DHT22;4872;48.316;10.650;2023-03-09T18:55:54;9.80;78.60
9668;DHT22;4872;48.316;10.650;2023-03-09T18:58:22;9.60;78.10
9668;DHT22;4872;48.316;10.650;2023-03-09T19:00:49;9.60;78.50
9668;DHT22;4872;48.316;10.650;2023-03-09T19:03:16;9.60;78.80
9668;DHT22;4872;48.316;10.650;2023-03-09T19:05:44;9.80;79.30
9668;DHT22;4872;48.316;10.650;2023-03-09T19:08:12;9.50;79.40
9668;DHT22;4872;48.316;10.650;2023-03-09T19:10:40;9.50;79.70
9668;DHT22;4872;48.316;10.650;2023-03-09T19:13:07;9.50;79.90
9668;DHT22;4872;48.316;10.650;2023-03-09T19:15:34;9.50;80.00
9668;DHT22;4872;48.316;10.650;2023-03-09T19:18:01;9.50;80.20
9668;DHT22;4872;48.316;10.650;2023-03-09T19:20:28;9.40;80.30
9668;DHT22;4872;48.316;10.650;2023-03-09T19:22:55;9.40;80.50
9668;DHT22;4872;48.316;10.650;2023-03-09T19:25:23;9.50;81.40
9668;DHT22;4872;48.316;10.650;2023-03-09T19:27:50;9.40;81.20
9668;DHT22;4872;48.316;10.650;2023-03-09T19:30:17;9.30;81.30
9668;DHT22;4872;48.316;10.650;2023-03-09T19:32:44;9.30;81.70
9668;DHT22;4872;48.316;10.650;2023-03-09T19:35:11;9.00;81.90
9668;DHT22;4872;48.316;10.650;2023-03-09T19:37:38;8.70;82.60
9668;DHT22;4872;48.316;10.650;2023-03-09T19:40:06;8.50;83.20
9668;DHT22;4872;48.316;10.650;2023-03-09T19:42:35;8.50;83.60
9668;DHT22;4872;48.316;10.650;2023-03-09T19:45:02;8.70;83.70
9668;DHT22;4872;48.316;10.650;2023-03-09T19:47:29;8.50;83.50
9668;DHT22;4872;48.316;10.650;2023-03-09T19:49:56;8.50;83.70
9668;DHT22;4872;48.316;10.650;2023-03-09T19:52:23;8.40;84.10
9668;DHT22;4872;48.316;10.650;2023-03-09T19:54:50;8.30;84.40
9668;DHT22;4872;48.316;10.650;2023-03-09T19:57:16;8.40;84.50
9668;DHT22;4872;48.316;10.650;2023-03-09T19:59:45;8.50;84.60
9668;DHT22;4872;48.316;10.650;2023-03-09T20:02:12;8.40;84.50
9668;DHT22;4872;48.316;10.650;2023-03-09T20:04:39;8.40;84.70
9668;DHT22;4872;48.316;10.650;2023-03-09T20:07:06;8.20;84.40
9668;DHT22;4872;48.316;10.650;2023-03-09T20:09:33;8.20;84.60
9668;DHT22;4872;48.316;10.650;2023-03-09T20:12:00;8.10;85.10
9668;DHT22;4872;48.316;10.650;2023-03-09T20:14:26;8.00;84.80
9668;DHT22;4872;48.316;10.650;2023-03-09T20:16:55;8.00;85.10
9668;DHT22;4872;48.316;10.650;2023-03-09T20:19:23;7.90;85.90
9668;DHT22;4872;48.316;10.650;2023-03-09T20:21:49;7.90;85.50
9668;DHT22;4872;48.316;10.650;2023-03-09T20:24:18;7.80;86.00
9668;DHT22;4872;48.316;10.650;2023-03-09T20:26:47;7.80;85.70
9668;DHT22;4872;48.316;10.650;2023-03-09T20:29:15;7.90;85.40
9668;DHT22;4872;48.316;10.650;2023-03-09T20:31:44;7.80;86.10
9668;DHT22;4872;48.316;10.650;2023-03-09T20:34:14;7.90;86.40
9668;DHT22;4872;48.316;10.650;2023-03-09T20:36:41;7.80;86.40
9668;DHT22;4872;48.316;10.650;2023-03-09T20:39:08;7.80;87.10
9668;DHT22;4872;48.316;10.650;2023-03-09T20:41:36;7.90;87.20
9668;DHT22;4872;48.316;10.650;2023-03-09T20:44:03;7.70;86.90
9668;DHT22;4872;48.316;10.650;2023-03-09T20:46:31;7.70;86.40
9668;DHT22;4872;48.316;10.650;2023-03-09T20:48:59;7.60;86.70
9668;DHT22;4872;48.316;10.650;2023-03-09T20:51:29;7.50;86.90
9668;DHT22;4872;48.316;10.650;2023-03-09T20:53:56;7.40;86.80
9668;DHT22;4872;48.316;10.650;2023-03-09T20:56:24;7.40;87.00
9668;DHT22;4872;48.316;10.650;2023-03-09T20:58:51;7.50;87.00
9668;DHT22;4872;48.316;10.650;2023-03-09T21:01:20;7.50;87.30
9668;DHT22;4872;48.316;10.650;2023-03-09T21:03:48;7.50;87.40
9668;DHT22;4872;48.316;10.650;2023-03-09T21:06:15;7.30;87.30
9668;DHT22;4872;48.316;10.650;2023-03-09T21:08:44;7.20;88.00
9668;DHT22;4872;48.316;10.650;2023-03-09T21:11:14;7.20;88.50
9668;DHT22;4872;48.316;10.650;2023-03-09T21:13:42;7.10;88.20
9668;DHT22;4872;48.316;10.650;2023-03-09T21:16:11;7.20;88.40
9668;DHT22;4872;48.316;10.650;2023-03-09T21:18:39;7.20;88.30
9668;DHT22;4872;48.316;10.650;2023-03-09T21:21:06;7.10;88.40
9668;DHT22;4872;48.316;10.650;2023-03-09T21:23:34;7.10;88.80
9668;DHT22;4872;48.316;10.650;2023-03-09T21:26:05;7.10;88.90
9668;DHT22;4872;48.316;10.650;2023-03-09T21:28:33;7.10;88.60
9668;DHT22;4872;48.316;10.650;2023-03-09T21:31:00;7.20;88.80
9668;DHT22;4872;48.316;10.650;2023-03-09T21:33:28;6.80;88.50
9668;DHT22;4872;48.316;10.650;2023-03-09T21:35:56;7.20;88.80
9668;DHT22;4872;48.316;10.650;2023-03-09T21:38:24;6.90;89.30
9668;DHT22;4872;48.316;10.650;2023-03-09T21:40:50;7.20;89.70
9668;DHT22;4872;48.316;10.650;2023-03-09T21:43:20;7.10;89.00
9668;DHT22;4872;48.316;10.650;2023-03-09T21:45:50;7.30;89.10
9668;DHT22;4872;48.316;10.650;2023-03-09T21:48:20;6.90;89.10
9668;DHT22;4872;48.316;10.650;2023-03-09T21:50:48;6.80;89.50
9668;DHT22;4872;48.316;10.650;2023-03-09T21:53:15;6.90;88.50
9668;DHT22;4872;48.316;10.650;2023-03-09T21:55:42;6.80;88.30
9668;DHT22;4872;48.316;10.650;2023-03-09T21:58:10;7.20;88.60
9668;DHT22;4872;48.316;10.650;2023-03-09T22:00:53;7.10;88.20
9668;DHT22;4872;48.316;10.650;2023-03-09T22:03:21;7.00;88.40
9668;DHT22;4872;48.316;10.650;2023-03-09T22:05:48;7.30;87.90
9668;DHT22;4872;48.316;10.650;2023-03-09T22:08:22;7.20;87.40
9668;DHT22;4872;48.316;10.650;2023-03-09T22:10:49;7.60;86.10
9668;DHT22;4872;48.316;10.650;2023-03-09T22:13:16;7.50;86.80
9668;DHT22;4872;48.316;10.650;2023-03-09T22:16:35;7.50;86.50
9668;DHT22;4872;48.316;10.650;2023-03-09T22:19:04;7.70;86.60
9668;DHT22;4872;48.316;10.650;2023-03-09T22:21:32;7.70;86.40
9668;DHT22;4872;48.316;10.650;2023-03-09T22:24:14;7.50;86.10
9668;DHT22;4872;48.316;10.650;2023-03-09T22:27:11;7.30;86.60
9668;DHT22;4872;48.316;10.650;2023-03-09T22:29:39;7.50;86.40
9668;DHT22;4872;48.316;10.650;2023-03-09T22:32:09;7.70;87.00
9668;DHT22;4872;48.316;10.650;2023-03-09T22:34:36;7.50;86.90
9668;DHT22;4872;48.316;10.650;2023-03-09T22:37:03;7.40;87.00
9668;DHT22;4872;48.316;10.650;2023-03-09T22:39:30;7.30;86.70
9668;DHT22;4872;48.316;10.650;2023-03-09T22:41:57;7.30;86.70
9668;DHT22;4872;48.316;10.650;2023-03-09T22:44:24;7.30;87.00
9668;DHT22;4872;48.316;10.650;2023-03-09T22:46:51;7.40;86.80
9668;DHT22;4872;48.316;10.650;2023-03-09T22:49:19;7.40;86.80
9668;DHT22;4872;48.316;10.650;2023-03-09T22:51:46;7.20;86.30
9668;DHT22;4872;48.316;10.650;2023-03-09T22:54:13;7.40;86.90
9668;DHT22;4872;48.316;10.650;2023-03-09T22:56:40;7.00;86.60
9668;DHT22;4872;48.316;10.650;2023-03-09T22:59:09;6.90;86.60
9668;DHT22;4872;48.316;10.650;2023-03-09T23:01:36;7.10;85.10
9668;DHT22;4872;48.316;10.650;2023-03-09T23:04:04;7.30;82.80
9668;DHT22;4872;48.316;10.650;2023-03-09T23:19:03;9.50;77.70
9668;DHT22;4872;48.316;10.650;2023-03-09T23:21:33;9.40;77.30
9668;DHT22;4872;48.316;10.650;2023-03-09T23:24:00;9.70;77.30
9668;DHT22;4872;48.316;10.650;2023-03-09T23:26:27;9.60;77.20
9668;DHT22;4872;48.316;10.650;2023-03-09T23:28:54;9.70;77.20
